Bassetts Creek, Alabama
Current Conditions -  °F | °C
As of 6:56 AM on Saturday 20 Dec 2014 (Local Time) from KMOB Reporting Station
Light Rain Light Rain  
Wind Chill: 40°   Ceiling: 600
Heat Index: 45°   Visibility: 4mi
Dew Point: 45°   Wind: 10mph
Humidity: 100%   Direction: 10°N
Pressure: 30.15"   Gusts: NA
Location:  31.3942°N, 88.065°W
Report Text: KMOB 201256Z 01009KT 4SM -RA BR OVC006 07/07 A3015 RMK AO2 SLP209 P0004 T00720072 $
Loading
Personal Weather Stations






























Interactive Weather Map New forecast layout! Learn more

10-Day Weather Forecast

Advertisements
Track Severe Weather on mobile